Latest Coastal Weather Observations for Cape Wessel

IDD60701

Issued at 4:11 pm CST Thursday 25 May 2017 (issued every 10 minutes, with the page automatically refreshed every 10 minutes)

About coastal observations | Map of coastal stations | Coastal observations for NT | Marine services | Other Formats
Station Details ID: 200786 Name: CAPE WESSEL Lat: -11.00 Lon: 136.76 Height: 18.0 m
Data from the previous 72 hours. | See also: Recent months at Cape Wessel
Date/Time
CST
Temp
°C
Wind Pressure Rain since
9am
mm
Weather Cloud Vis
km
Sea
Height
m
Swell
Dir  Spd
kts
Gust
kts
hPa Trend Height
m
Period
s
Dir
25/04:00pm 29.3 SE 20 25 1010.3 - 0.0 - - - - - - -
25/03:30pm 29.7 ESE 20 27 1010.1 - 0.0 - - - - - - -
25/03:00pm 28.9 ESE 19 23 1010.2 - 0.0 - - - - - - -
25/02:30pm 30.4 ESE 19 23 1010.2 - 0.0 - - - - - - -
25/02:00pm 30.7 ESE 19 24 1010.2 - 0.0 - - - - - - -
25/01:30pm 30.4 ESE 18 23 1010.6 - 0.0 - - - - - - -
25/01:00pm 30.7 ESE 20 24 1011.0 - 0.0 - - - - - - -
25/12:30pm 30.9 ESE 19 25 1011.3 - 0.0 - - - - - - -
25/12:00pm 30.7 ESE 20 25 1011.6 - 0.0 - - - - - - -
25/11:30am 30.7 ESE 21 26 1011.9 - 0.0 - - - - - - -
25/11:00am 30.4 ESE 21 25 1012.2 - 0.0 - - - - - - -
25/10:30am 30.1 ESE 22 27 1012.5 - 0.0 - - - - - - -
25/10:00am 29.9 ESE 20 26 1012.4 - 0.0 - - - - - - -
25/09:30am 29.4 ESE 20 25 1012.6 - 0.0 - - - - - - -
25/09:00am 29.4 ESE 21 25 1012.4 - 0.0 - - - - - - -
25/08:30am 29.0 ESE 21 27 1012.2 - 0.0 - - - - - - -
25/08:00am 28.4 ESE 20 25 1011.9 - 0.0 - - - - - - -
25/07:30am 27.7 ESE 24 30 1011.5 - 0.0 - - - - - - -
25/07:00am 27.7 ESE 22 28 1011.2 - 0.0 - - - - - - -
25/06:30am 27.5 SE 22 28 1010.8 - 0.0 - - - - - - -
25/06:00am 27.6 ESE 22 27 1010.6 - 0.0 - - - - - - -
25/05:30am 27.5 SE 22 28 1010.4 - 0.0 - - - - - - -
25/05:00am 27.5 SE 20 23 1010.2 - 0.0 - - - - - - -
25/04:30am 27.4 SE 20 25 1010.0 - 0.0 - - - - - - -
25/04:00am 27.5 SE 19 23 1010.1 - 0.0 - - - - - - -
25/03:30am 27.5 SE 18 23 1010.2 - 0.0 - - - - - - -
25/03:00am 27.3 SE 18 22 1010.4 - 0.0 - - - - - - -
25/02:30am 27.1 SE 17 21 1010.6 - 0.0 - - - - - - -
25/02:00am 27.1 SE 16 20 1010.9 - 0.0 - - - - - - -
25/01:30am 27.3 SE 19 23 1011.1 - 0.0 - - - - - - -
25/01:00am 27.3 SE 18 22 1011.3 - 0.0 - - - - - - -
25/12:30am 27.2 SE 18 22 1011.3 - 0.0 - - - - - - -
25/12:00am 27.3 SE 18 22 1011.6 - 0.0 - - - - - - -
 
Date/Time
CST
Temp
°C
Wind Pressure Rain since
9am
mm
Weather Cloud Vis
km
Sea
Height
m
Swell
Dir  Spd
kts
Gust
kts
hPa Trend Height
m
Period
s
Dir
24/11:30pm 27.3 SE 18 23 1012.0 - 0.0 - - - - - - -
24/11:00pm 27.4 SE 18 23 1012.2 - 0.0 - - - - - - -
24/10:30pm 27.5 SE 18 21 1012.5 - 0.0 - - - - - - -
24/10:00pm 27.6 SE 18 22 1012.5 - 0.0 - - - - - - -
24/09:30pm 27.4 SE 18 22 1012.2 - 0.0 - - - - - - -
24/09:00pm 27.4 SE 18 23 1012.2 - 0.0 - - - - - - -
24/08:30pm 27.3 SE 19 23 1012.0 - 0.0 - - - - - - -
24/08:00pm 27.7 SE 19 23 1011.7 - 0.0 - - - - - - -
24/07:30pm 27.6 SE 17 21 1011.4 - 0.0 - - - - - - -
24/07:00pm 27.6 SE 18 21 1011.1 - 0.0 - - - - - - -
24/06:30pm 27.7 SE 17 21 1010.8 - 0.0 - - - - - - -
24/06:00pm 27.7 SE 18 21 1010.5 - 0.0 - - - - - - -
24/05:30pm 28.1 SE 18 21 1010.2 - 0.0 - - - - - - -
24/05:00pm 28.4 SE 18 22 1010.0 - 0.0 - - - - - - -
24/04:30pm 29.2 ESE 16 21 1009.7 - 0.0 - - - - - - -
24/04:00pm 29.6 ESE 15 19 1009.6 - 0.0 - - - - - - -
24/03:30pm 29.9 ESE 16 20 1009.7 - 0.0 - - - - - - -
24/03:00pm 29.8 ESE 14 19 1009.7 - 0.0 - - - - - - -
24/02:30pm 29.4 ESE 15 19 1010.0 - 0.0 - - - - - - -
24/02:00pm 29.7 SE 17 20 1010.3 - 0.0 - - - - - - -
24/01:30pm 29.6 SE 17 21 1010.8 - 0.0 - - - - - - -
24/01:00pm 29.2 SE 16 20 1011.2 - 0.0 - - - - - - -
24/12:30pm 30.2 SE 16 20 1011.6 - 0.0 - - - - - - -
24/12:00pm 30.3 SE 15 20 1012.1 - 0.0 - - - - - - -
24/11:30am 28.7 SE 17 21 1012.4 - 0.0 - - - - - - -
24/11:00am 30.2 SE 17 20 1012.7 - 0.0 - - - - - - -
24/10:30am 30.3 SE 17 20 1012.8 - 0.0 - - - - - - -
24/10:00am 30.7 ESE 17 21 1012.8 - 0.0 - - - - - - -
24/09:30am 29.6 ESE 17 21 1012.9 - 0.0 - - - - - - -
24/09:00am 28.4 ESE 17 21 1012.9 - 0.0 - - - - - - -
24/08:30am 28.3 SE 18 22 1012.9 - 0.0 - - - - - - -
24/08:00am 28.1 SE 17 20 1012.6 - 0.0 - - - - - - -
24/07:30am 27.4 SE 17 21 1012.2 - 0.0 - - - - - - -
24/07:00am 27.2 SE 17 21 1011.7 - 0.0 - - - - - - -
24/06:30am 26.9 SE 17 20 1011.4 - 0.0 - - - - - - -
24/06:00am 26.9 SE 18 21 1011.1 - 0.0 - - - - - - -
24/05:30am 26.9 SE 17 21 1010.7 - 0.0 - - - - - - -
24/05:00am 26.9 SE 17 21 1010.6 - 0.0 - - - - - - -
24/04:30am 26.9 SE 17 22 1010.5 - 0.0 - - - - - - -
24/04:00am 27.0 SE 18 22 1010.6 - 0.0 - - - - - - -
24/03:30am 27.0 SE 18 22 1010.5 - 0.0 - - - - - - -
24/03:00am 27.0 SE 18 21 1010.7 - 0.0 - - - - - - -
24/02:30am 27.0 SE 17 21 1010.7 - 0.0 - - - - - - -
24/02:00am 27.1 SE 19 24 1011.0 - 0.0 - - - - - - -
24/01:30am 27.0 SE 19 23 1010.9 - 0.0 - - - - - - -
24/01:00am 26.9 SE 18 22 1011.1 - 0.0 - - - - - - -
24/12:30am 27.0 SE 18 21 1011.5 - 0.0 - - - - - - -
24/12:00am 27.0 SE 19 22 1011.9 - 0.0 - - - - - - -
 
Date/Time
CST
Temp
°C
Wind Pressure Rain since
9am
mm
Weather Cloud Vis
km
Sea
Height
m
Swell
Dir  Spd
kts
Gust
kts
hPa Trend Height
m
Period
s
Dir
23/11:30pm 26.9 SE 17 21 1012.1 - 0.0 - - - - - - -
23/11:00pm 27.0 SE 18 23 1012.2 - 0.0 - - - - - - -
23/10:30pm 27.1 SSE 17 21 1012.3 - 0.0 - - - - - - -
23/10:00pm 27.2 SE 19 23 1012.3 - 0.0 - - - - - - -
23/09:30pm 27.1 SE 18 22 1012.3 - 0.0 - - - - - - -
23/09:00pm 27.2 SSE 18 23 1012.1 - 0.0 - - - - - - -
23/08:30pm 27.1 SSE 17 20 1011.9 - 0.0 - - - - - - -
23/08:00pm 27.2 SSE 17 21 1011.6 - 0.0 - - - - - - -
23/07:30pm 27.2 SSE 16 20 1011.3 - 0.0 - - - - - - -
23/07:00pm 27.3 SE 15 19 1011.0 - 0.0 - - - - - - -
23/06:30pm 27.3 SE 16 19 1010.7 - 0.0 - - - - - - -
23/06:00pm 27.4 SE 15 18 1010.7 - 0.0 - - - - - - -
23/05:30pm 27.9 SE 15 18 1010.6 - 0.0 - - - - - - -
23/05:00pm 28.1 SE 14 18 1010.4 - 0.0 - - - - - - -
23/04:30pm 28.3 SE 14 18 1010.1 - 0.0 - - - - - - -
23/04:00pm 29.1 SE 14 17 1009.9 - 0.0 - - - - - - -
23/03:30pm 29.9 ESE 14 17 1009.9 - 0.0 - - - - - - -
23/03:00pm 30.2 ESE 15 18 1010.0 - 0.0 - - - - - - -
23/02:30pm 30.5 ESE 15 19 1010.2 - 0.0 - - - - - - -
23/02:00pm 31.0 E 14 17 1010.5 - 0.0 - - - - - - -
23/01:30pm 31.0 ESE 15 19 1010.8 - 0.0 - - - - - - -
23/01:00pm 31.1 SE 17 21 1011.3 - 0.0 - - - - - - -
23/12:30pm 30.5 SE 17 21 1011.8 - 0.0 - - - - - - -
23/12:00pm 30.5 ESE 17 21 1012.3 - 0.0 - - - - - - -
23/11:30am 30.2 ESE 17 22 1012.8 - 0.0 - - - - - - -
23/11:00am 30.3 ESE 17 21 1013.0 - 0.0 - - - - - - -
23/10:30am 30.3 ESE 18 23 1013.3 - 0.0 - - - - - - -
23/10:00am 30.2 ESE 17 22 1013.2 - 0.0 - - - - - - -
23/09:30am 29.3 ESE 19 22 1013.2 - 0.0 - - - - - - -
23/09:00am 28.8 ESE 18 22 1013.4 - 0.0 - - - - - - -
23/08:30am 28.3 SE 18 22 1013.1 - 0.0 - - - - - - -
23/08:00am 27.9 SE 19 23 1012.6 - 0.0 - - - - - - -
23/07:30am 27.6 SE 18 22 1012.3 - 0.0 - - - - - - -
23/07:00am 27.3 SE 18 22 1012.0 - 0.0 - - - - - - -
23/06:30am 27.2 SE 18 22 1011.6 - 0.0 - - - - - - -
23/06:00am 27.3 SE 19 23 1011.2 - 0.0 - - - - - - -
23/05:30am 27.2 SE 17 21 1010.9 - 0.0 - - - - - - -
23/05:00am 27.0 SE 18 21 1010.5 - 0.0 - - - - - - -
23/04:30am 27.0 SE 19 22 1010.4 - 0.0 - - - - - - -
23/04:00am 27.0 SE 19 23 1010.3 - 0.0 - - - - - - -
23/03:30am 27.0 SE 18 22 1010.4 - 0.0 - - - - - - -
23/03:00am 27.0 SE 18 23 1010.7 - 0.0 - - - - - - -
23/02:30am 27.2 SE 18 23 1010.9 - 0.0 - - - - - - -
23/01:30am 27.3 SE 19 24 1011.5 - 0.0 - - - - - - -
23/01:00am 27.2 SE 18 22 1011.8 - 0.0 - - - - - - -
23/12:30am 27.3 SE 17 21 1012.0 - 0.0 - - - - - - -
23/12:00am 27.3 SE 17 20 1012.1 - 0.0 - - - - - - -
 
Date/Time
CST
Temp
°C
Wind Pressure Rain since
9am
mm
Weather Cloud Vis
km
Sea
Height
m
Swell
Dir  Spd
kts
Gust
kts
hPa Trend Height
m
Period
s
Dir
22/11:30pm 27.2 SE 17 21 1012.3 - 0.0 - - - - - - -
22/11:00pm 27.3 SE 17 21 1012.5 - 0.0 - - - - - - -
22/10:30pm 27.4 SE 17 20 1012.6 - 0.0 - - - - - - -
22/10:00pm 27.3 SE 16 19 1012.6 - 0.0 - - - - - - -
22/09:30pm 27.1 SE 15 18 1012.3 - 0.0 - - - - - - -
22/09:00pm 27.3 SE 14 17 1012.3 - 0.0 - - - - - - -
22/08:30pm 27.2 SE 15 17 1011.9 - 0.0 - - - - - - -
22/08:00pm 27.4 SE 15 18 1011.6 - 0.0 - - - - - - -
22/07:30pm 27.4 SE 16 19 1011.3 - 0.0 - - - - - - -
22/07:00pm 27.4 SE 16 19 1011.2 - 0.0 - - - - - - -
22/06:30pm 27.5 SE 16 20 1010.8 - 0.0 - - - - - - -
22/06:00pm 27.7 SE 16 21 1010.4 - 0.0 - - - - - - -
22/05:30pm 28.1 SE 17 21 1010.2 - 0.0 - - - - - - -
22/05:00pm 28.6 SE 18 21 1010.0 - 0.0 - - - - - - -
22/04:30pm 29.4 SE 17 20 1009.9 - 0.0 - - - - - - -

Other Formats:

Comma delimited format used in spreadsheet applications
http://www.bom.gov.au/fwo/IDD60701/IDD60701.94147.axf

JavaScript Object Notation format (JSON) in row-major order
http://www.bom.gov.au/fwo/IDD60701/IDD60701.94147.json